sensor_id;sensor_type;location;lat;lon;timestamp;P1;durP1;ratioP1;P2;durP2;ratioP2
28836;SDS011;50669;50.982;11.022;2022-07-30T00:00:29;8.60;;;7.57;;
28836;SDS011;50669;50.982;11.022;2022-07-30T00:02:55;7.80;;;7.00;;
28836;SDS011;50669;50.982;11.022;2022-07-30T00:05:22;9.13;;;6.82;;
28836;SDS011;50669;50.982;11.022;2022-07-30T00:07:50;7.75;;;7.05;;
28836;SDS011;50669;50.982;11.022;2022-07-30T00:10:16;8.35;;;7.32;;
28836;SDS011;50669;50.982;11.022;2022-07-30T00:12:41;7.72;;;6.93;;
28836;SDS011;50669;50.982;11.022;2022-07-30T00:15:07;8.68;;;7.47;;
28836;SDS011;50669;50.982;11.022;2022-07-30T00:17:33;7.82;;;6.97;;
28836;SDS011;50669;50.982;11.022;2022-07-30T00:20:03;7.20;;;6.47;;
28836;SDS011;50669;50.982;11.022;2022-07-30T00:22:29;8.70;;;6.80;;
28836;SDS011;50669;50.982;11.022;2022-07-30T00:24:58;8.18;;;6.93;;
28836;SDS011;50669;50.982;11.022;2022-07-30T00:27:25;8.02;;;7.22;;
28836;SDS011;50669;50.982;11.022;2022-07-30T00:29:51;7.80;;;6.70;;
28836;SDS011;50669;50.982;11.022;2022-07-30T00:32:17;7.53;;;6.07;;
28836;SDS011;50669;50.982;11.022;2022-07-30T00:34:42;9.02;;;7.00;;
28836;SDS011;50669;50.982;11.022;2022-07-30T00:37:08;6.93;;;6.32;;
28836;SDS011;50669;50.982;11.022;2022-07-30T00:39:34;8.07;;;7.20;;
28836;SDS011;50669;50.982;11.022;2022-07-30T00:42:02;8.10;;;7.30;;
28836;SDS011;50669;50.982;11.022;2022-07-30T00:44:30;9.98;;;7.90;;
28836;SDS011;50669;50.982;11.022;2022-07-30T00:46:56;8.75;;;7.95;;
28836;SDS011;50669;50.982;11.022;2022-07-30T00:49:22;9.52;;;7.68;;
28836;SDS011;50669;50.982;11.022;2022-07-30T00:51:49;9.32;;;8.30;;
28836;SDS011;50669;50.982;11.022;2022-07-30T00:54:16;11.00;;;8.10;;
28836;SDS011;50669;50.982;11.022;2022-07-30T00:56:42;9.48;;;8.48;;
28836;SDS011;50669;50.982;11.022;2022-07-30T00:59:08;9.02;;;8.23;;
28836;SDS011;50669;50.982;11.022;2022-07-30T01:01:34;9.88;;;8.88;;
28836;SDS011;50669;50.982;11.022;2022-07-30T01:04:00;10.00;;;9.00;;
28836;SDS011;50669;50.982;11.022;2022-07-30T01:06:28;10.50;;;9.40;;
28836;SDS011;50669;50.982;11.022;2022-07-30T01:08:54;10.15;;;9.15;;
28836;SDS011;50669;50.982;11.022;2022-07-30T01:11:30;9.75;;;8.80;;
28836;SDS011;50669;50.982;11.022;2022-07-30T01:13:59;9.23;;;8.23;;
28836;SDS011;50669;50.982;11.022;2022-07-30T01:16:25;10.55;;;9.23;;
28836;SDS011;50669;50.982;11.022;2022-07-30T01:18:51;9.60;;;8.70;;
28836;SDS011;50669;50.982;11.022;2022-07-30T01:21:39;10.35;;;9.02;;
28836;SDS011;50669;50.982;11.022;2022-07-30T01:26:55;9.77;;;8.80;;
28836;SDS011;50669;50.982;11.022;2022-07-30T01:29:22;10.15;;;9.15;;
28836;SDS011;50669;50.982;11.022;2022-07-30T01:31:49;10.73;;;9.48;;
28836;SDS011;50669;50.982;11.022;2022-07-30T01:34:20;9.73;;;8.80;;
28836;SDS011;50669;50.982;11.022;2022-07-30T01:36:47;10.13;;;9.02;;
28836;SDS011;50669;50.982;11.022;2022-07-30T01:39:17;10.27;;;9.27;;
28836;SDS011;50669;50.982;11.022;2022-07-30T01:41:44;9.93;;;8.93;;
28836;SDS011;50669;50.982;11.022;2022-07-30T01:44:15;10.18;;;8.90;;
28836;SDS011;50669;50.982;11.022;2022-07-30T01:46:42;10.50;;;8.70;;
28836;SDS011;50669;50.982;11.022;2022-07-30T01:49:08;10.32;;;9.38;;
28836;SDS011;50669;50.982;11.022;2022-07-30T01:51:36;9.70;;;8.77;;
28836;SDS011;50669;50.982;11.022;2022-07-30T01:54:07;9.85;;;8.95;;
28836;SDS011;50669;50.982;11.022;2022-07-30T01:56:34;9.27;;;8.38;;
28836;SDS011;50669;50.982;11.022;2022-07-30T01:59:02;9.85;;;8.88;;
28836;SDS011;50669;50.982;11.022;2022-07-30T02:01:32;9.43;;;8.50;;
28836;SDS011;50669;50.982;11.022;2022-07-30T02:04:00;9.45;;;8.57;;
28836;SDS011;50669;50.982;11.022;2022-07-30T02:06:33;9.82;;;8.85;;
28836;SDS011;50669;50.982;11.022;2022-07-30T02:09:05;9.68;;;8.35;;
28836;SDS011;50669;50.982;11.022;2022-07-30T02:11:34;10.07;;;9.07;;
28836;SDS011;50669;50.982;11.022;2022-07-30T02:14:24;9.02;;;8.13;;
28836;SDS011;50669;50.982;11.022;2022-07-30T02:16:54;9.55;;;8.57;;
28836;SDS011;50669;50.982;11.022;2022-07-30T02:19:23;9.40;;;8.50;;
28836;SDS011;50669;50.982;11.022;2022-07-30T02:21:57;8.85;;;8.05;;
28836;SDS011;50669;50.982;11.022;2022-07-30T02:24:29;10.05;;;8.93;;
28836;SDS011;50669;50.982;11.022;2022-07-30T02:26:59;13.77;;;9.20;;
28836;SDS011;50669;50.982;11.022;2022-07-30T02:29:34;9.93;;;8.95;;
28836;SDS011;50669;50.982;11.022;2022-07-30T02:32:03;9.63;;;8.68;;
28836;SDS011;50669;50.982;11.022;2022-07-30T02:34:33;10.15;;;9.18;;
28836;SDS011;50669;50.982;11.022;2022-07-30T02:37:03;10.55;;;8.25;;
28836;SDS011;50669;50.982;11.022;2022-07-30T02:39:30;10.00;;;7.82;;
28836;SDS011;50669;50.982;11.022;2022-07-30T02:41:58;10.25;;;7.82;;
28836;SDS011;50669;50.982;11.022;2022-07-30T02:44:26;9.30;;;8.40;;
28836;SDS011;50669;50.982;11.022;2022-07-30T02:46:55;9.23;;;8.10;;
28836;SDS011;50669;50.982;11.022;2022-07-30T02:49:21;10.00;;;8.32;;
28836;SDS011;50669;50.982;11.022;2022-07-30T02:51:48;9.20;;;8.05;;
28836;SDS011;50669;50.982;11.022;2022-07-30T02:54:18;9.80;;;8.35;;
28836;SDS011;50669;50.982;11.022;2022-07-30T02:56:45;8.70;;;7.82;;
28836;SDS011;50669;50.982;11.022;2022-07-30T02:59:13;7.97;;;7.25;;
28836;SDS011;50669;50.982;11.022;2022-07-30T03:04:12;10.77;;;8.05;;
28836;SDS011;50669;50.982;11.022;2022-07-30T03:06:40;9.20;;;7.90;;
28836;SDS011;50669;50.982;11.022;2022-07-30T03:09:09;10.45;;;8.23;;
28836;SDS011;50669;50.982;11.022;2022-07-30T03:11:35;9.18;;;8.10;;
28836;SDS011;50669;50.982;11.022;2022-07-30T03:14:03;8.45;;;7.70;;
28836;SDS011;50669;50.982;11.022;2022-07-30T03:16:31;10.43;;;7.93;;
28836;SDS011;50669;50.982;11.022;2022-07-30T03:19:06;8.07;;;7.32;;
28836;SDS011;50669;50.982;11.022;2022-07-30T03:21:34;8.98;;;8.05;;
28836;SDS011;50669;50.982;11.022;2022-07-30T03:24:02;8.90;;;7.97;;
28836;SDS011;50669;50.982;11.022;2022-07-30T03:26:35;8.23;;;7.40;;
28836;SDS011;50669;50.982;11.022;2022-07-30T03:29:05;8.93;;;7.45;;
28836;SDS011;50669;50.982;11.022;2022-07-30T03:31:34;8.63;;;7.10;;
28836;SDS011;50669;50.982;11.022;2022-07-30T03:34:04;8.75;;;7.95;;
28836;SDS011;50669;50.982;11.022;2022-07-30T03:36:31;9.93;;;7.80;;
28836;SDS011;50669;50.982;11.022;2022-07-30T03:38:58;11.07;;;7.90;;
28836;SDS011;50669;50.982;11.022;2022-07-30T03:41:24;12.13;;;7.60;;
28836;SDS011;50669;50.982;11.022;2022-07-30T03:43:50;10.15;;;7.25;;
28836;SDS011;50669;50.982;11.022;2022-07-30T03:46:19;8.93;;;7.93;;
28836;SDS011;50669;50.982;11.022;2022-07-30T03:48:46;10.80;;;8.07;;
28836;SDS011;50669;50.982;11.022;2022-07-30T03:51:16;9.52;;;8.07;;
28836;SDS011;50669;50.982;11.022;2022-07-30T03:53:42;11.57;;;8.63;;
28836;SDS011;50669;50.982;11.022;2022-07-30T03:56:09;9.30;;;7.70;;
28836;SDS011;50669;50.982;11.022;2022-07-30T03:58:36;8.77;;;7.88;;
28836;SDS011;50669;50.982;11.022;2022-07-30T04:01:04;10.10;;;8.65;;
28836;SDS011;50669;50.982;11.022;2022-07-30T04:03:30;10.07;;;8.70;;
28836;SDS011;50669;50.982;11.022;2022-07-30T04:05:57;9.40;;;8.48;;
28836;SDS011;50669;50.982;11.022;2022-07-30T04:08:28;9.80;;;8.80;;
28836;SDS011;50669;50.982;11.022;2022-07-30T04:10:57;10.10;;;9.13;;
28836;SDS011;50669;50.982;11.022;2022-07-30T04:13:25;14.23;;;9.55;;
28836;SDS011;50669;50.982;11.022;2022-07-30T04:16:24;11.50;;;9.10;;
28836;SDS011;50669;50.982;11.022;2022-07-30T04:18:49;12.35;;;10.30;;
28836;SDS011;50669;50.982;11.022;2022-07-30T04:21:17;12.55;;;10.93;;
28836;SDS011;50669;50.982;11.022;2022-07-30T04:23:48;11.40;;;10.20;;
28836;SDS011;50669;50.982;11.022;2022-07-30T04:26:18;11.25;;;10.07;;
28836;SDS011;50669;50.982;11.022;2022-07-30T04:28:52;13.55;;;10.77;;
28836;SDS011;50669;50.982;11.022;2022-07-30T04:31:18;11.50;;;10.27;;
28836;SDS011;50669;50.982;11.022;2022-07-30T04:33:44;12.48;;;10.10;;
28836;SDS011;50669;50.982;11.022;2022-07-30T04:36:10;12.25;;;10.32;;
28836;SDS011;50669;50.982;11.022;2022-07-30T04:38:36;10.93;;;9.88;;
28836;SDS011;50669;50.982;11.022;2022-07-30T04:41:04;11.65;;;10.25;;
28836;SDS011;50669;50.982;11.022;2022-07-30T04:43:32;11.48;;;10.32;;
28836;SDS011;50669;50.982;11.022;2022-07-30T04:46:00;10.85;;;9.75;;
28836;SDS011;50669;50.982;11.022;2022-07-30T04:48:25;10.55;;;9.50;;
28836;SDS011;50669;50.982;11.022;2022-07-30T04:50:52;13.43;;;10.82;;
28836;SDS011;50669;50.982;11.022;2022-07-30T04:53:21;11.95;;;10.75;;
28836;SDS011;50669;50.982;11.022;2022-07-30T04:55:49;9.50;;;8.60;;
28836;SDS011;50669;50.982;11.022;2022-07-30T04:58:19;9.40;;;8.30;;
28836;SDS011;50669;50.982;11.022;2022-07-30T05:00:46;9.75;;;8.02;;
28836;SDS011;50669;50.982;11.022;2022-07-30T05:03:15;10.90;;;8.18;;
28836;SDS011;50669;50.982;11.022;2022-07-30T05:05:45;9.20;;;8.30;;
28836;SDS011;50669;50.982;11.022;2022-07-30T05:08:14;10.98;;;8.80;;
28836;SDS011;50669;50.982;11.022;2022-07-30T05:10:40;10.77;;;8.93;;
28836;SDS011;50669;50.982;11.022;2022-07-30T05:13:11;11.40;;;8.95;;
28836;SDS011;50669;50.982;11.022;2022-07-30T05:15:38;10.23;;;9.05;;
28836;SDS011;50669;50.982;11.022;2022-07-30T05:18:03;10.40;;;9.40;;
28836;SDS011;50669;50.982;11.022;2022-07-30T05:20:32;11.43;;;9.95;;
28836;SDS011;50669;50.982;11.022;2022-07-30T05:22:58;10.65;;;9.23;;
28836;SDS011;50669;50.982;11.022;2022-07-30T05:25:26;9.27;;;8.38;;
28836;SDS011;50669;50.982;11.022;2022-07-30T05:27:51;11.10;;;8.15;;
28836;SDS011;50669;50.982;11.022;2022-07-30T05:30:17;9.07;;;8.18;;
28836;SDS011;50669;50.982;11.022;2022-07-30T05:32:46;9.27;;;7.65;;
28836;SDS011;50669;50.982;11.022;2022-07-30T05:35:14;8.68;;;7.82;;
28836;SDS011;50669;50.982;11.022;2022-07-30T05:37:40;9.02;;;7.75;;
28836;SDS011;50669;50.982;11.022;2022-07-30T05:40:08;10.95;;;8.00;;
28836;SDS011;50669;50.982;11.022;2022-07-30T05:42:34;12.95;;;8.40;;
28836;SDS011;50669;50.982;11.022;2022-07-30T05:45:02;11.25;;;8.57;;
28836;SDS011;50669;50.982;11.022;2022-07-30T05:47:27;9.95;;;8.93;;
28836;SDS011;50669;50.982;11.022;2022-07-30T05:49:53;9.43;;;8.52;;
28836;SDS011;50669;50.982;11.022;2022-07-30T05:52:21;10.95;;;8.73;;
28836;SDS011;50669;50.982;11.022;2022-07-30T05:54:47;10.70;;;8.30;;
28836;SDS011;50669;50.982;11.022;2022-07-30T05:57:12;8.95;;;8.15;;
28836;SDS011;50669;50.982;11.022;2022-07-30T05:59:41;11.63;;;9.07;;
28836;SDS011;50669;50.982;11.022;2022-07-30T06:02:10;10.40;;;8.32;;
28836;SDS011;50669;50.982;11.022;2022-07-30T06:04:36;12.65;;;9.02;;
28836;SDS011;50669;50.982;11.022;2022-07-30T06:07:02;10.02;;;7.82;;
28836;SDS011;50669;50.982;11.022;2022-07-30T06:09:27;9.65;;;8.32;;
28836;SDS011;50669;50.982;11.022;2022-07-30T06:11:55;10.00;;;8.93;;
28836;SDS011;50669;50.982;11.022;2022-07-30T06:14:21;9.43;;;8.50;;
28836;SDS011;50669;50.982;11.022;2022-07-30T06:16:47;9.60;;;8.80;;
28836;SDS011;50669;50.982;11.022;2022-07-30T06:19:15;9.63;;;8.40;;
28836;SDS011;50669;50.982;11.022;2022-07-30T06:21:40;9.60;;;7.75;;
28836;SDS011;50669;50.982;11.022;2022-07-30T06:24:07;9.30;;;8.38;;
28836;SDS011;50669;50.982;11.022;2022-07-30T06:26:35;8.52;;;7.35;;
28836;SDS011;50669;50.982;11.022;2022-07-30T06:29:00;9.75;;;7.72;;
28836;SDS011;50669;50.982;11.022;2022-07-30T06:31:26;10.07;;;7.85;;
28836;SDS011;50669;50.982;11.022;2022-07-30T06:33:52;8.50;;;7.40;;
28836;SDS011;50669;50.982;11.022;2022-07-30T06:36:17;7.78;;;6.70;;
28836;SDS011;50669;50.982;11.022;2022-07-30T06:38:43;11.32;;;8.48;;
28836;SDS011;50669;50.982;11.022;2022-07-30T06:41:08;9.52;;;7.15;;
28836;SDS011;50669;50.982;11.022;2022-07-30T06:43:39;12.50;;;7.20;;
28836;SDS011;50669;50.982;11.022;2022-07-30T06:46:07;9.77;;;7.15;;
28836;SDS011;50669;50.982;11.022;2022-07-30T06:48:32;9.25;;;6.95;;
28836;SDS011;50669;50.982;11.022;2022-07-30T06:50:58;8.77;;;7.03;;
28836;SDS011;50669;50.982;11.022;2022-07-30T06:53:23;7.80;;;6.20;;
28836;SDS011;50669;50.982;11.022;2022-07-30T06:55:49;7.32;;;6.57;;
28836;SDS011;50669;50.982;11.022;2022-07-30T06:58:15;8.40;;;6.00;;
28836;SDS011;50669;50.982;11.022;2022-07-30T07:00:41;11.23;;;6.13;;
28836;SDS011;50669;50.982;11.022;2022-07-30T07:03:08;7.78;;;6.38;;
28836;SDS011;50669;50.982;11.022;2022-07-30T07:05:35;8.68;;;7.10;;
28836;SDS011;50669;50.982;11.022;2022-07-30T07:08:00;7.50;;;6.13;;
28836;SDS011;50669;50.982;11.022;2022-07-30T07:10:26;6.25;;;5.65;;
28836;SDS011;50669;50.982;11.022;2022-07-30T07:12:52;7.72;;;6.93;;
28836;SDS011;50669;50.982;11.022;2022-07-30T07:15:18;7.03;;;6.32;;
28836;SDS011;50669;50.982;11.022;2022-07-30T07:17:44;7.93;;;6.25;;
28836;SDS011;50669;50.982;11.022;2022-07-30T07:20:10;7.65;;;6.10;;
28836;SDS011;50669;50.982;11.022;2022-07-30T07:22:38;7.10;;;5.70;;
28836;SDS011;50669;50.982;11.022;2022-07-30T07:25:04;6.85;;;5.45;;
28836;SDS011;50669;50.982;11.022;2022-07-30T07:27:30;6.35;;;5.70;;
28836;SDS011;50669;50.982;11.022;2022-07-30T07:29:56;10.00;;;6.07;;
28836;SDS011;50669;50.982;11.022;2022-07-30T07:32:23;5.90;;;5.22;;
28836;SDS011;50669;50.982;11.022;2022-07-30T07:34:49;8.82;;;5.63;;
28836;SDS011;50669;50.982;11.022;2022-07-30T07:37:15;10.00;;;6.00;;
28836;SDS011;50669;50.982;11.022;2022-07-30T07:39:41;7.93;;;5.82;;
28836;SDS011;50669;50.982;11.022;2022-07-30T07:42:07;8.57;;;5.72;;
28836;SDS011;50669;50.982;11.022;2022-07-30T07:44:35;10.02;;;6.20;;
28836;SDS011;50669;50.982;11.022;2022-07-30T07:47:00;5.75;;;5.20;;
28836;SDS011;50669;50.982;11.022;2022-07-30T07:49:28;6.93;;;5.28;;
28836;SDS011;50669;50.982;11.022;2022-07-30T07:51:54;6.88;;;5.13;;
28836;SDS011;50669;50.982;11.022;2022-07-30T07:54:19;7.65;;;5.40;;
28836;SDS011;50669;50.982;11.022;2022-07-30T07:56:45;6.18;;;5.30;;
28836;SDS011;50669;50.982;11.022;2022-07-30T07:59:12;7.22;;;5.85;;
28836;SDS011;50669;50.982;11.022;2022-07-30T08:01:40;6.35;;;5.75;;
28836;SDS011;50669;50.982;11.022;2022-07-30T08:04:06;6.53;;;5.03;;
28836;SDS011;50669;50.982;11.022;2022-07-30T08:06:31;6.32;;;5.53;;
28836;SDS011;50669;50.982;11.022;2022-07-30T08:08:57;10.55;;;5.30;;
28836;SDS011;50669;50.982;11.022;2022-07-30T08:11:25;5.00;;;4.40;;
28836;SDS011;50669;50.982;11.022;2022-07-30T08:13:54;4.70;;;4.20;;
28836;SDS011;50669;50.982;11.022;2022-07-30T08:16:21;7.97;;;4.50;;
28836;SDS011;50669;50.982;11.022;2022-07-30T08:18:47;4.88;;;4.35;;
28836;SDS011;50669;50.982;11.022;2022-07-30T08:21:13;6.32;;;3.70;;
28836;SDS011;50669;50.982;11.022;2022-07-30T08:23:39;5.10;;;3.60;;
28836;SDS011;50669;50.982;11.022;2022-07-30T08:26:05;7.47;;;3.92;;
28836;SDS011;50669;50.982;11.022;2022-07-30T08:28:36;5.00;;;3.47;;
28836;SDS011;50669;50.982;11.022;2022-07-30T08:31:07;6.75;;;4.28;;
28836;SDS011;50669;50.982;11.022;2022-07-30T08:33:32;5.55;;;3.72;;
28836;SDS011;50669;50.982;11.022;2022-07-30T08:36:01;7.03;;;4.18;;
28836;SDS011;50669;50.982;11.022;2022-07-30T08:38:29;3.95;;;3.55;;
28836;SDS011;50669;50.982;11.022;2022-07-30T08:40:54;4.32;;;3.92;;
28836;SDS011;50669;50.982;11.022;2022-07-30T08:43:23;7.88;;;4.38;;
28836;SDS011;50669;50.982;11.022;2022-07-30T08:45:50;4.82;;;3.60;;
28836;SDS011;50669;50.982;11.022;2022-07-30T08:48:20;4.40;;;3.60;;
28836;SDS011;50669;50.982;11.022;2022-07-30T08:50:49;4.20;;;3.67;;
28836;SDS011;50669;50.982;11.022;2022-07-30T08:53:19;4.35;;;3.70;;
28836;SDS011;50669;50.982;11.022;2022-07-30T08:55:46;5.20;;;4.30;;
28836;SDS011;50669;50.982;11.022;2022-07-30T08:58:19;5.88;;;3.80;;
28836;SDS011;50669;50.982;11.022;2022-07-30T09:00:54;6.15;;;4.15;;
28836;SDS011;50669;50.982;11.022;2022-07-30T09:03:23;4.80;;;4.00;;
28836;SDS011;50669;50.982;11.022;2022-07-30T09:05:51;5.18;;;3.67;;
28836;SDS011;50669;50.982;11.022;2022-07-30T09:08:17;5.47;;;3.90;;
28836;SDS011;50669;50.982;11.022;2022-07-30T09:10:43;5.07;;;3.67;;
28836;SDS011;50669;50.982;11.022;2022-07-30T09:15:55;4.97;;;4.35;;
28836;SDS011;50669;50.982;11.022;2022-07-30T09:18:40;5.15;;;4.65;;
28836;SDS011;50669;50.982;11.022;2022-07-30T09:24:01;5.18;;;3.80;;
28836;SDS011;50669;50.982;11.022;2022-07-30T09:26:29;4.35;;;3.95;;
28836;SDS011;50669;50.982;11.022;2022-07-30T09:29:16;5.80;;;4.05;;
28836;SDS011;50669;50.982;11.022;2022-07-30T09:31:56;8.23;;;4.55;;
28836;SDS011;50669;50.982;11.022;2022-07-30T09:34:26;7.70;;;4.72;;
28836;SDS011;50669;50.982;11.022;2022-07-30T09:36:56;4.35;;;3.58;;
28836;SDS011;50669;50.982;11.022;2022-07-30T09:39:34;5.32;;;4.38;;
28836;SDS011;50669;50.982;11.022;2022-07-30T09:42:01;4.05;;;3.67;;
28836;SDS011;50669;50.982;11.022;2022-07-30T09:44:29;5.68;;;3.88;;
28836;SDS011;50669;50.982;11.022;2022-07-30T09:46:56;17.83;;;16.00;;
28836;SDS011;50669;50.982;11.022;2022-07-30T09:49:29;4.78;;;3.75;;
28836;SDS011;50669;50.982;11.022;2022-07-30T09:51:55;4.32;;;3.92;;
28836;SDS011;50669;50.982;11.022;2022-07-30T09:54:23;7.40;;;3.78;;
28836;SDS011;50669;50.982;11.022;2022-07-30T09:57:09;4.25;;;3.80;;
28836;SDS011;50669;50.982;11.022;2022-07-30T09:59:34;10.35;;;3.83;;
28836;SDS011;50669;50.982;11.022;2022-07-30T10:02:00;5.93;;;3.95;;
28836;SDS011;50669;50.982;11.022;2022-07-30T10:04:29;5.25;;;3.92;;
28836;SDS011;50669;50.982;11.022;2022-07-30T10:06:56;4.80;;;3.70;;
28836;SDS011;50669;50.982;11.022;2022-07-30T10:09:32;4.00;;;3.60;;
28836;SDS011;50669;50.982;11.022;2022-07-30T10:12:02;4.88;;;4.00;;
28836;SDS011;50669;50.982;11.022;2022-07-30T10:14:33;4.85;;;4.05;;
28836;SDS011;50669;50.982;11.022;2022-07-30T10:17:03;5.88;;;4.50;;
28836;SDS011;50669;50.982;11.022;2022-07-30T10:19:31;4.28;;;3.33;;
28836;SDS011;50669;50.982;11.022;2022-07-30T10:21:58;4.78;;;4.25;;
28836;SDS011;50669;50.982;11.022;2022-07-30T10:24:26;5.53;;;4.05;;
28836;SDS011;50669;50.982;11.022;2022-07-30T10:26:54;5.32;;;4.25;;
28836;SDS011;50669;50.982;11.022;2022-07-30T10:29:22;4.57;;;4.15;;
28836;SDS011;50669;50.982;11.022;2022-07-30T10:31:50;4.05;;;3.65;;
28836;SDS011;50669;50.982;11.022;2022-07-30T10:34:17;5.20;;;3.75;;
28836;SDS011;50669;50.982;11.022;2022-07-30T10:36:47;5.63;;;4.40;;
28836;SDS011;50669;50.982;11.022;2022-07-30T10:39:33;5.53;;;3.55;;
28836;SDS011;50669;50.982;11.022;2022-07-30T10:47:44;6.25;;;3.80;;
28836;SDS011;50669;50.982;11.022;2022-07-30T10:50:11;5.20;;;3.67;;
28836;SDS011;50669;50.982;11.022;2022-07-30T10:52:45;4.20;;;3.60;;
28836;SDS011;50669;50.982;11.022;2022-07-30T10:57:56;5.80;;;3.80;;
28836;SDS011;50669;50.982;11.022;2022-07-30T11:00:26;4.05;;;3.60;;
28836;SDS011;50669;50.982;11.022;2022-07-30T11:05:38;3.63;;;3.33;;
28836;SDS011;50669;50.982;11.022;2022-07-30T11:10:52;4.30;;;3.67;;
28836;SDS011;50669;50.982;11.022;2022-07-30T11:13:18;4.70;;;3.53;;
28836;SDS011;50669;50.982;11.022;2022-07-30T11:21:26;3.75;;;3.00;;
28836;SDS011;50669;50.982;11.022;2022-07-30T11:23:51;7.10;;;4.30;;
28836;SDS011;50669;50.982;11.022;2022-07-30T11:31:54;4.00;;;3.70;;
28836;SDS011;50669;50.982;11.022;2022-07-30T11:42:35;5.95;;;4.55;;
28836;SDS011;50669;50.982;11.022;2022-07-30T11:47:42;5.90;;;4.05;;
28836;SDS011;50669;50.982;11.022;2022-07-30T11:50:18;6.22;;;4.07;;
28836;SDS011;50669;50.982;11.022;2022-07-30T11:52:49;4.97;;;4.25;;
28836;SDS011;50669;50.982;11.022;2022-07-30T11:57:54;4.70;;;4.20;;
28836;SDS011;50669;50.982;11.022;2022-07-30T12:00:20;5.13;;;4.63;;
28836;SDS011;50669;50.982;11.022;2022-07-30T12:02:46;4.88;;;4.30;;
28836;SDS011;50669;50.982;11.022;2022-07-30T12:05:13;4.80;;;4.40;;
28836;SDS011;50669;50.982;11.022;2022-07-30T12:07:39;5.32;;;4.80;;
28836;SDS011;50669;50.982;11.022;2022-07-30T12:10:11;6.60;;;4.60;;
28836;SDS011;50669;50.982;11.022;2022-07-30T12:12:37;6.18;;;4.82;;
28836;SDS011;50669;50.982;11.022;2022-07-30T12:15:05;5.55;;;4.57;;
28836;SDS011;50669;50.982;11.022;2022-07-30T12:17:44;4.90;;;4.45;;
28836;SDS011;50669;50.982;11.022;2022-07-30T12:20:16;5.30;;;4.40;;
28836;SDS011;50669;50.982;11.022;2022-07-30T12:22:45;5.68;;;4.18;;
28836;SDS011;50669;50.982;11.022;2022-07-30T12:25:11;14.65;;;5.05;;
28836;SDS011;50669;50.982;11.022;2022-07-30T12:27:43;8.38;;;4.35;;
28836;SDS011;50669;50.982;11.022;2022-07-30T12:30:14;4.78;;;3.80;;
28836;SDS011;50669;50.982;11.022;2022-07-30T12:32:41;5.05;;;3.80;;
28836;SDS011;50669;50.982;11.022;2022-07-30T12:35:08;5.30;;;3.85;;
28836;SDS011;50669;50.982;11.022;2022-07-30T12:37:37;5.75;;;4.25;;
28836;SDS011;50669;50.982;11.022;2022-07-30T12:40:10;4.20;;;3.80;;
28836;SDS011;50669;50.982;11.022;2022-07-30T12:42:52;4.60;;;4.20;;
28836;SDS011;50669;50.982;11.022;2022-07-30T12:45:25;5.03;;;3.88;;
28836;SDS011;50669;50.982;11.022;2022-07-30T12:47:52;5.05;;;4.55;;
28836;SDS011;50669;50.982;11.022;2022-07-30T12:50:18;7.18;;;4.03;;
28836;SDS011;50669;50.982;11.022;2022-07-30T12:52:49;4.80;;;4.07;;
28836;SDS011;50669;50.982;11.022;2022-07-30T12:55:27;4.32;;;3.90;;
28836;SDS011;50669;50.982;11.022;2022-07-30T13:00:31;5.13;;;3.90;;
28836;SDS011;50669;50.982;11.022;2022-07-30T13:03:22;5.80;;;4.07;;
28836;SDS011;50669;50.982;11.022;2022-07-30T13:05:51;4.25;;;3.35;;
28836;SDS011;50669;50.982;11.022;2022-07-30T13:08:18;4.70;;;3.22;;
28836;SDS011;50669;50.982;11.022;2022-07-30T13:10:54;4.32;;;3.70;;
28836;SDS011;50669;50.982;11.022;2022-07-30T13:13:24;4.18;;;3.33;;
28836;SDS011;50669;50.982;11.022;2022-07-30T13:15:57;3.72;;;3.38;;
28836;SDS011;50669;50.982;11.022;2022-07-30T13:18:26;4.00;;;3.58;;
28836;SDS011;50669;50.982;11.022;2022-07-30T13:20:58;6.85;;;3.90;;
28836;SDS011;50669;50.982;11.022;2022-07-30T13:23:25;4.00;;;3.45;;
28836;SDS011;50669;50.982;11.022;2022-07-30T13:25:51;3.20;;;2.90;;
28836;SDS011;50669;50.982;11.022;2022-07-30T13:28:18;3.50;;;3.20;;
28836;SDS011;50669;50.982;11.022;2022-07-30T13:30:44;4.95;;;3.45;;
28836;SDS011;50669;50.982;11.022;2022-07-30T13:33:10;3.50;;;3.20;;
28836;SDS011;50669;50.982;11.022;2022-07-30T13:35:36;4.57;;;3.13;;
28836;SDS011;50669;50.982;11.022;2022-07-30T13:38:02;3.55;;;3.25;;
28836;SDS011;50669;50.982;11.022;2022-07-30T13:40:31;5.65;;;3.80;;
28836;SDS011;50669;50.982;11.022;2022-07-30T13:43:00;3.92;;;3.38;;
28836;SDS011;50669;50.982;11.022;2022-07-30T13:45:28;3.50;;;3.20;;
28836;SDS011;50669;50.982;11.022;2022-07-30T13:47:54;7.82;;;3.95;;
28836;SDS011;50669;50.982;11.022;2022-07-30T13:50:20;4.65;;;3.38;;
28836;SDS011;50669;50.982;11.022;2022-07-30T13:52:46;4.20;;;3.45;;
28836;SDS011;50669;50.982;11.022;2022-07-30T13:55:14;4.05;;;3.42;;
28836;SDS011;50669;50.982;11.022;2022-07-30T13:57:40;3.50;;;3.20;;
28836;SDS011;50669;50.982;11.022;2022-07-30T14:00:06;3.70;;;3.22;;
28836;SDS011;50669;50.982;11.022;2022-07-30T14:02:33;4.05;;;3.58;;
28836;SDS011;50669;50.982;11.022;2022-07-30T14:04:59;3.65;;;3.35;;
28836;SDS011;50669;50.982;11.022;2022-07-30T14:07:30;3.60;;;3.22;;
28836;SDS011;50669;50.982;11.022;2022-07-30T14:09:59;3.60;;;3.10;;
28836;SDS011;50669;50.982;11.022;2022-07-30T14:12:25;4.45;;;3.15;;
28836;SDS011;50669;50.982;11.022;2022-07-30T14:14:53;3.50;;;3.15;;
28836;SDS011;50669;50.982;11.022;2022-07-30T14:17:19;6.03;;;5.40;;
28836;SDS011;50669;50.982;11.022;2022-07-30T14:19:44;3.50;;;3.13;;
28836;SDS011;50669;50.982;11.022;2022-07-30T14:22:11;3.10;;;2.72;;
28836;SDS011;50669;50.982;11.022;2022-07-30T14:24:36;5.90;;;3.42;;
28836;SDS011;50669;50.982;11.022;2022-07-30T14:27:02;3.55;;;3.25;;
28836;SDS011;50669;50.982;11.022;2022-07-30T14:29:28;17.20;;;14.23;;
28836;SDS011;50669;50.982;11.022;2022-07-30T14:31:53;5.70;;;5.10;;
28836;SDS011;50669;50.982;11.022;2022-07-30T14:34:24;4.45;;;4.05;;
28836;SDS011;50669;50.982;11.022;2022-07-30T14:36:50;5.07;;;4.55;;
28836;SDS011;50669;50.982;11.022;2022-07-30T14:39:15;5.30;;;4.20;;
28836;SDS011;50669;50.982;11.022;2022-07-30T14:41:44;3.70;;;3.40;;
28836;SDS011;50669;50.982;11.022;2022-07-30T14:44:15;4.82;;;3.35;;
28836;SDS011;50669;50.982;11.022;2022-07-30T14:46:40;5.50;;;3.50;;
28836;SDS011;50669;50.982;11.022;2022-07-30T14:49:07;3.83;;;3.53;;
28836;SDS011;50669;50.982;11.022;2022-07-30T14:51:36;4.50;;;3.70;;
28836;SDS011;50669;50.982;11.022;2022-07-30T14:54:04;3.70;;;3.40;;
28836;SDS011;50669;50.982;11.022;2022-07-30T14:56:29;5.22;;;4.20;;
28836;SDS011;50669;50.982;11.022;2022-07-30T14:58:55;4.10;;;3.80;;
28836;SDS011;50669;50.982;11.022;2022-07-30T15:01:23;5.03;;;3.60;;
28836;SDS011;50669;50.982;11.022;2022-07-30T15:03:49;12.55;;;9.82;;
28836;SDS011;50669;50.982;11.022;2022-07-30T15:06:15;5.20;;;4.03;;
28836;SDS011;50669;50.982;11.022;2022-07-30T15:08:41;4.55;;;4.13;;
28836;SDS011;50669;50.982;11.022;2022-07-30T15:11:10;8.25;;;4.47;;
28836;SDS011;50669;50.982;11.022;2022-07-30T15:13:35;4.78;;;4.38;;
28836;SDS011;50669;50.982;11.022;2022-07-30T15:16:05;4.68;;;4.07;;
28836;SDS011;50669;50.982;11.022;2022-07-30T15:18:31;4.85;;;4.18;;
28836;SDS011;50669;50.982;11.022;2022-07-30T15:20:58;5.13;;;4.47;;
28836;SDS011;50669;50.982;11.022;2022-07-30T15:23:26;4.60;;;4.20;;
28836;SDS011;50669;50.982;11.022;2022-07-30T15:25:52;6.40;;;4.97;;
28836;SDS011;50669;50.982;11.022;2022-07-30T15:28:17;4.55;;;4.13;;